sensor_id;sensor_type;location;lat;lon;timestamp;P1;durP1;ratioP1;P2;durP2;ratioP2
63965;SDS011;50151;52.030;5.350;2023-04-25T00:01:54;14.02;;;2.63;;
63965;SDS011;50151;52.030;5.350;2023-04-25T00:04:20;11.98;;;2.55;;
63965;SDS011;50151;52.030;5.350;2023-04-25T00:06:48;9.85;;;2.33;;
63965;SDS011;50151;52.030;5.350;2023-04-25T00:09:14;10.15;;;2.40;;
63965;SDS011;50151;52.030;5.350;2023-04-25T00:11:41;8.98;;;2.15;;
63965;SDS011;50151;52.030;5.350;2023-04-25T00:14:08;12.35;;;2.38;;
63965;SDS011;50151;52.030;5.350;2023-04-25T00:16:36;9.20;;;2.15;;
63965;SDS011;50151;52.030;5.350;2023-04-25T00:19:03;9.93;;;2.67;;
63965;SDS011;50151;52.030;5.350;2023-04-25T00:21:30;12.88;;;2.50;;
63965;SDS011;50151;52.030;5.350;2023-04-25T00:23:57;14.90;;;3.38;;
63965;SDS011;50151;52.030;5.350;2023-04-25T00:26:25;13.13;;;2.40;;
63965;SDS011;50151;52.030;5.350;2023-04-25T00:28:53;12.65;;;2.25;;
63965;SDS011;50151;52.030;5.350;2023-04-25T00:31:19;7.55;;;2.08;;
63965;SDS011;50151;52.030;5.350;2023-04-25T00:33:46;10.10;;;1.80;;
63965;SDS011;50151;52.030;5.350;2023-04-25T00:36:14;13.05;;;2.80;;
63965;SDS011;50151;52.030;5.350;2023-04-25T00:38:41;10.48;;;3.22;;
63965;SDS011;50151;52.030;5.350;2023-04-25T00:41:07;19.55;;;2.30;;
63965;SDS011;50151;52.030;5.350;2023-04-25T00:43:34;11.43;;;2.20;;
63965;SDS011;50151;52.030;5.350;2023-04-25T00:46:02;10.52;;;2.05;;
63965;SDS011;50151;52.030;5.350;2023-04-25T00:48:29;13.10;;;2.35;;
63965;SDS011;50151;52.030;5.350;2023-04-25T00:50:57;13.88;;;2.20;;
63965;SDS011;50151;52.030;5.350;2023-04-25T00:53:26;10.15;;;2.42;;
63965;SDS011;50151;52.030;5.350;2023-04-25T00:55:54;6.68;;;1.85;;
63965;SDS011;50151;52.030;5.350;2023-04-25T00:58:21;9.07;;;2.20;;
63965;SDS011;50151;52.030;5.350;2023-04-25T01:00:49;8.35;;;2.20;;
63965;SDS011;50151;52.030;5.350;2023-04-25T01:03:18;13.70;;;2.38;;
63965;SDS011;50151;52.030;5.350;2023-04-25T01:05:49;18.92;;;2.45;;
63965;SDS011;50151;52.030;5.350;2023-04-25T01:08:17;9.07;;;2.10;;
63965;SDS011;50151;52.030;5.350;2023-04-25T01:10:43;8.35;;;2.08;;
63965;SDS011;50151;52.030;5.350;2023-04-25T01:13:10;16.65;;;2.20;;
63965;SDS011;50151;52.030;5.350;2023-04-25T01:15:37;8.45;;;2.20;;
63965;SDS011;50151;52.030;5.350;2023-04-25T01:18:04;11.13;;;1.95;;
63965;SDS011;50151;52.030;5.350;2023-04-25T01:20:33;13.63;;;2.38;;
63965;SDS011;50151;52.030;5.350;2023-04-25T01:23:01;13.27;;;2.90;;
63965;SDS011;50151;52.030;5.350;2023-04-25T01:25:30;11.07;;;2.42;;
63965;SDS011;50151;52.030;5.350;2023-04-25T01:27:57;14.18;;;2.78;;
63965;SDS011;50151;52.030;5.350;2023-04-25T01:30:25;11.65;;;2.70;;
63965;SDS011;50151;52.030;5.350;2023-04-25T01:32:57;15.10;;;2.38;;
63965;SDS011;50151;52.030;5.350;2023-04-25T01:35:25;10.65;;;2.30;;
63965;SDS011;50151;52.030;5.350;2023-04-25T01:37:51;9.38;;;2.30;;
63965;SDS011;50151;52.030;5.350;2023-04-25T01:40:19;7.85;;;2.28;;
63965;SDS011;50151;52.030;5.350;2023-04-25T01:42:48;11.43;;;2.50;;
63965;SDS011;50151;52.030;5.350;2023-04-25T01:45:15;15.40;;;2.28;;
63965;SDS011;50151;52.030;5.350;2023-04-25T01:47:43;10.18;;;2.40;;
63965;SDS011;50151;52.030;5.350;2023-04-25T01:50:15;8.57;;;2.10;;
63965;SDS011;50151;52.030;5.350;2023-04-25T01:52:43;7.63;;;1.90;;
63965;SDS011;50151;52.030;5.350;2023-04-25T01:55:10;13.75;;;2.53;;
63965;SDS011;50151;52.030;5.350;2023-04-25T01:57:37;12.05;;;2.35;;
63965;SDS011;50151;52.030;5.350;2023-04-25T02:00:04;12.55;;;2.00;;
63965;SDS011;50151;52.030;5.350;2023-04-25T02:02:33;8.45;;;2.08;;
63965;SDS011;50151;52.030;5.350;2023-04-25T02:04:59;12.25;;;2.83;;
63965;SDS011;50151;52.030;5.350;2023-04-25T02:07:27;8.98;;;2.22;;
63965;SDS011;50151;52.030;5.350;2023-04-25T02:09:54;10.10;;;1.98;;
63965;SDS011;50151;52.030;5.350;2023-04-25T02:12:21;13.68;;;2.10;;
63965;SDS011;50151;52.030;5.350;2023-04-25T02:14:47;15.85;;;2.42;;
63965;SDS011;50151;52.030;5.350;2023-04-25T02:17:14;10.75;;;2.38;;
63965;SDS011;50151;52.030;5.350;2023-04-25T02:19:42;9.52;;;2.40;;
63965;SDS011;50151;52.030;5.350;2023-04-25T02:22:08;7.55;;;2.40;;
63965;SDS011;50151;52.030;5.350;2023-04-25T02:24:36;10.43;;;2.35;;
63965;SDS011;50151;52.030;5.350;2023-04-25T02:27:03;10.73;;;2.53;;
63965;SDS011;50151;52.030;5.350;2023-04-25T02:29:29;9.93;;;2.42;;
63965;SDS011;50151;52.030;5.350;2023-04-25T02:31:56;7.05;;;1.88;;
63965;SDS011;50151;52.030;5.350;2023-04-25T02:34:23;10.68;;;2.38;;
63965;SDS011;50151;52.030;5.350;2023-04-25T02:36:49;9.93;;;2.42;;
63965;SDS011;50151;52.030;5.350;2023-04-25T02:39:17;11.70;;;2.75;;
63965;SDS011;50151;52.030;5.350;2023-04-25T02:41:43;8.57;;;2.33;;
63965;SDS011;50151;52.030;5.350;2023-04-25T02:44:10;9.70;;;2.45;;
63965;SDS011;50151;52.030;5.350;2023-04-25T02:46:37;10.60;;;2.47;;
63965;SDS011;50151;52.030;5.350;2023-04-25T02:49:07;8.88;;;1.92;;
63965;SDS011;50151;52.030;5.350;2023-04-25T02:51:34;9.75;;;2.20;;
63965;SDS011;50151;52.030;5.350;2023-04-25T02:54:01;8.40;;;2.20;;
63965;SDS011;50151;52.030;5.350;2023-04-25T02:56:27;11.50;;;2.58;;
63965;SDS011;50151;52.030;5.350;2023-04-25T02:58:54;6.30;;;2.17;;
63965;SDS011;50151;52.030;5.350;2023-04-25T03:01:21;11.38;;;2.53;;
63965;SDS011;50151;52.030;5.350;2023-04-25T03:03:48;10.88;;;2.38;;
63965;SDS011;50151;52.030;5.350;2023-04-25T03:06:15;12.25;;;2.38;;
63965;SDS011;50151;52.030;5.350;2023-04-25T03:08:42;9.70;;;2.70;;
63965;SDS011;50151;52.030;5.350;2023-04-25T03:11:09;10.45;;;2.45;;
63965;SDS011;50151;52.030;5.350;2023-04-25T03:13:36;8.55;;;2.20;;
63965;SDS011;50151;52.030;5.350;2023-04-25T03:16:03;7.75;;;2.45;;
63965;SDS011;50151;52.030;5.350;2023-04-25T03:18:30;9.40;;;2.25;;
63965;SDS011;50151;52.030;5.350;2023-04-25T03:20:57;5.18;;;1.90;;
63965;SDS011;50151;52.030;5.350;2023-04-25T03:23:24;6.38;;;2.28;;
63965;SDS011;50151;52.030;5.350;2023-04-25T03:25:51;11.30;;;2.45;;
63965;SDS011;50151;52.030;5.350;2023-04-25T03:28:17;13.68;;;3.00;;
63965;SDS011;50151;52.030;5.350;2023-04-25T03:30:44;12.52;;;2.60;;
63965;SDS011;50151;52.030;5.350;2023-04-25T03:33:11;6.90;;;1.90;;
63965;SDS011;50151;52.030;5.350;2023-04-25T03:35:37;5.47;;;1.95;;
63965;SDS011;50151;52.030;5.350;2023-04-25T03:38:04;12.70;;;2.30;;
63965;SDS011;50151;52.030;5.350;2023-04-25T03:40:31;9.20;;;2.35;;
63965;SDS011;50151;52.030;5.350;2023-04-25T03:42:57;7.50;;;2.00;;
63965;SDS011;50151;52.030;5.350;2023-04-25T03:45:24;8.70;;;2.25;;
63965;SDS011;50151;52.030;5.350;2023-04-25T03:47:51;7.47;;;2.50;;
63965;SDS011;50151;52.030;5.350;2023-04-25T03:50:17;7.25;;;2.25;;
63965;SDS011;50151;52.030;5.350;2023-04-25T03:52:44;7.57;;;2.53;;
63965;SDS011;50151;52.030;5.350;2023-04-25T03:55:10;6.85;;;2.28;;
63965;SDS011;50151;52.030;5.350;2023-04-25T03:57:37;14.00;;;2.53;;
63965;SDS011;50151;52.030;5.350;2023-04-25T04:00:04;7.10;;;1.95;;
63965;SDS011;50151;52.030;5.350;2023-04-25T04:02:32;11.02;;;2.17;;
63965;SDS011;50151;52.030;5.350;2023-04-25T04:05:01;9.48;;;2.08;;
63965;SDS011;50151;52.030;5.350;2023-04-25T04:07:29;10.07;;;2.25;;
63965;SDS011;50151;52.030;5.350;2023-04-25T04:09:55;7.40;;;1.85;;
63965;SDS011;50151;52.030;5.350;2023-04-25T04:12:22;7.90;;;1.90;;
63965;SDS011;50151;52.030;5.350;2023-04-25T04:14:49;5.97;;;1.83;;
63965;SDS011;50151;52.030;5.350;2023-04-25T04:17:15;8.32;;;1.98;;
63965;SDS011;50151;52.030;5.350;2023-04-25T04:19:42;8.30;;;2.13;;
63965;SDS011;50151;52.030;5.350;2023-04-25T04:22:09;6.60;;;1.60;;
63965;SDS011;50151;52.030;5.350;2023-04-25T04:24:36;4.82;;;1.50;;
63965;SDS011;50151;52.030;5.350;2023-04-25T04:27:02;5.97;;;1.55;;
63965;SDS011;50151;52.030;5.350;2023-04-25T04:29:30;7.20;;;1.73;;
63965;SDS011;50151;52.030;5.350;2023-04-25T04:31:57;8.32;;;2.10;;
63965;SDS011;50151;52.030;5.350;2023-04-25T04:34:23;4.55;;;1.50;;
63965;SDS011;50151;52.030;5.350;2023-04-25T04:36:51;5.95;;;1.63;;
63965;SDS011;50151;52.030;5.350;2023-04-25T04:39:18;5.95;;;1.45;;
63965;SDS011;50151;52.030;5.350;2023-04-25T04:41:45;7.35;;;1.85;;
63965;SDS011;50151;52.030;5.350;2023-04-25T04:44:11;5.70;;;1.67;;
63965;SDS011;50151;52.030;5.350;2023-04-25T04:46:38;6.00;;;1.75;;
63965;SDS011;50151;52.030;5.350;2023-04-25T04:49:09;4.03;;;1.80;;
63965;SDS011;50151;52.030;5.350;2023-04-25T04:51:36;11.77;;;2.15;;
63965;SDS011;50151;52.030;5.350;2023-04-25T04:54:03;10.40;;;1.70;;
63965;SDS011;50151;52.030;5.350;2023-04-25T04:56:30;14.38;;;1.77;;
63965;SDS011;50151;52.030;5.350;2023-04-25T04:58:58;11.18;;;1.92;;
63965;SDS011;50151;52.030;5.350;2023-04-25T05:01:25;11.35;;;2.22;;
63965;SDS011;50151;52.030;5.350;2023-04-25T05:03:52;5.20;;;1.60;;
63965;SDS011;50151;52.030;5.350;2023-04-25T05:06:20;8.55;;;1.88;;
63965;SDS011;50151;52.030;5.350;2023-04-25T05:08:47;8.30;;;1.73;;
63965;SDS011;50151;52.030;5.350;2023-04-25T05:11:14;9.40;;;2.53;;
63965;SDS011;50151;52.030;5.350;2023-04-25T05:13:40;10.32;;;2.05;;
63965;SDS011;50151;52.030;5.350;2023-04-25T05:16:07;11.73;;;1.80;;
63965;SDS011;50151;52.030;5.350;2023-04-25T05:18:33;5.07;;;1.73;;
63965;SDS011;50151;52.030;5.350;2023-04-25T05:21:01;10.38;;;2.25;;
63965;SDS011;50151;52.030;5.350;2023-04-25T05:23:27;6.93;;;1.83;;
63965;SDS011;50151;52.030;5.350;2023-04-25T05:25:58;8.25;;;2.15;;
63965;SDS011;50151;52.030;5.350;2023-04-25T05:28:25;7.03;;;1.40;;
63965;SDS011;50151;52.030;5.350;2023-04-25T05:30:52;7.88;;;1.83;;
63965;SDS011;50151;52.030;5.350;2023-04-25T05:33:19;8.07;;;1.60;;
63965;SDS011;50151;52.030;5.350;2023-04-25T05:35:46;6.38;;;1.35;;
63965;SDS011;50151;52.030;5.350;2023-04-25T05:38:12;9.38;;;1.98;;
63965;SDS011;50151;52.030;5.350;2023-04-25T05:40:39;10.93;;;1.90;;
63965;SDS011;50151;52.030;5.350;2023-04-25T05:43:06;7.93;;;2.05;;
63965;SDS011;50151;52.030;5.350;2023-04-25T05:45:33;6.50;;;1.33;;
63965;SDS011;50151;52.030;5.350;2023-04-25T05:48:00;8.52;;;1.50;;
63965;SDS011;50151;52.030;5.350;2023-04-25T05:50:26;7.18;;;1.40;;
63965;SDS011;50151;52.030;5.350;2023-04-25T05:52:53;5.50;;;1.30;;
63965;SDS011;50151;52.030;5.350;2023-04-25T05:55:20;7.05;;;1.60;;
63965;SDS011;50151;52.030;5.350;2023-04-25T05:57:46;10.27;;;1.63;;
63965;SDS011;50151;52.030;5.350;2023-04-25T06:00:16;7.60;;;1.48;;
63965;SDS011;50151;52.030;5.350;2023-04-25T06:02:44;7.25;;;1.25;;
63965;SDS011;50151;52.030;5.350;2023-04-25T06:05:11;10.65;;;2.10;;
63965;SDS011;50151;52.030;5.350;2023-04-25T06:07:38;9.45;;;1.52;;
63965;SDS011;50151;52.030;5.350;2023-04-25T06:10:05;4.55;;;1.13;;
63965;SDS011;50151;52.030;5.350;2023-04-25T06:12:33;4.53;;;1.33;;
63965;SDS011;50151;52.030;5.350;2023-04-25T06:15:00;6.80;;;1.55;;
63965;SDS011;50151;52.030;5.350;2023-04-25T06:17:28;5.50;;;1.45;;
63965;SDS011;50151;52.030;5.350;2023-04-25T06:19:55;11.35;;;1.92;;
63965;SDS011;50151;52.030;5.350;2023-04-25T06:22:21;13.60;;;2.03;;
63965;SDS011;50151;52.030;5.350;2023-04-25T06:24:48;9.75;;;1.40;;
63965;SDS011;50151;52.030;5.350;2023-04-25T06:27:15;4.00;;;1.20;;
63965;SDS011;50151;52.030;5.350;2023-04-25T06:29:42;11.73;;;1.55;;
63965;SDS011;50151;52.030;5.350;2023-04-25T06:32:08;10.20;;;1.58;;
63965;SDS011;50151;52.030;5.350;2023-04-25T06:34:35;6.50;;;1.52;;
63965;SDS011;50151;52.030;5.350;2023-04-25T06:37:02;6.68;;;1.52;;
63965;SDS011;50151;52.030;5.350;2023-04-25T06:39:28;5.90;;;1.20;;
63965;SDS011;50151;52.030;5.350;2023-04-25T06:41:56;8.45;;;1.50;;
63965;SDS011;50151;52.030;5.350;2023-04-25T06:44:22;8.23;;;1.48;;
63965;SDS011;50151;52.030;5.350;2023-04-25T06:46:50;9.93;;;1.60;;
63965;SDS011;50151;52.030;5.350;2023-04-25T06:49:17;4.80;;;1.00;;
63965;SDS011;50151;52.030;5.350;2023-04-25T06:51:43;6.70;;;1.58;;
63965;SDS011;50151;52.030;5.350;2023-04-25T06:54:10;5.18;;;1.27;;
63965;SDS011;50151;52.030;5.350;2023-04-25T06:56:37;9.38;;;1.42;;
63965;SDS011;50151;52.030;5.350;2023-04-25T06:59:03;5.38;;;1.27;;
63965;SDS011;50151;52.030;5.350;2023-04-25T07:01:30;11.25;;;1.85;;
63965;SDS011;50151;52.030;5.350;2023-04-25T07:03:57;8.90;;;1.42;;
63965;SDS011;50151;52.030;5.350;2023-04-25T07:06:24;10.20;;;1.58;;
63965;SDS011;50151;52.030;5.350;2023-04-25T07:08:51;12.32;;;1.63;;
63965;SDS011;50151;52.030;5.350;2023-04-25T07:11:18;10.43;;;1.52;;
63965;SDS011;50151;52.030;5.350;2023-04-25T07:13:45;10.95;;;1.35;;
63965;SDS011;50151;52.030;5.350;2023-04-25T07:16:12;10.73;;;1.50;;
63965;SDS011;50151;52.030;5.350;2023-04-25T07:18:39;13.35;;;1.52;;
63965;SDS011;50151;52.030;5.350;2023-04-25T07:21:05;8.35;;;1.70;;
63965;SDS011;50151;52.030;5.350;2023-04-25T07:23:32;14.05;;;1.60;;
63965;SDS011;50151;52.030;5.350;2023-04-25T07:25:59;8.45;;;1.48;;
63965;SDS011;50151;52.030;5.350;2023-04-25T07:28:25;7.28;;;1.23;;
63965;SDS011;50151;52.030;5.350;2023-04-25T07:30:52;9.63;;;1.42;;
63965;SDS011;50151;52.030;5.350;2023-04-25T07:33:19;9.45;;;1.75;;
63965;SDS011;50151;52.030;5.350;2023-04-25T07:35:46;4.25;;;1.10;;
63965;SDS011;50151;52.030;5.350;2023-04-25T07:38:13;6.57;;;1.50;;
63965;SDS011;50151;52.030;5.350;2023-04-25T07:40:40;8.70;;;1.20;;
63965;SDS011;50151;52.030;5.350;2023-04-25T07:43:06;7.05;;;1.02;;
63965;SDS011;50151;52.030;5.350;2023-04-25T07:45:33;7.68;;;1.27;;
63965;SDS011;50151;52.030;5.350;2023-04-25T07:48:00;2.92;;;0.73;;
63965;SDS011;50151;52.030;5.350;2023-04-25T07:50:26;10.70;;;1.15;;
63965;SDS011;50151;52.030;5.350;2023-04-25T07:52:53;6.50;;;1.08;;
63965;SDS011;50151;52.030;5.350;2023-04-25T07:55:20;7.65;;;1.02;;
63965;SDS011;50151;52.030;5.350;2023-04-25T07:57:47;8.65;;;1.35;;
63965;SDS011;50151;52.030;5.350;2023-04-25T08:00:13;4.40;;;0.77;;
63965;SDS011;50151;52.030;5.350;2023-04-25T08:02:41;4.05;;;1.63;;
63965;SDS011;50151;52.030;5.350;2023-04-25T08:05:08;4.50;;;1.20;;
63965;SDS011;50151;52.030;5.350;2023-04-25T08:07:38;4.88;;;1.20;;
63965;SDS011;50151;52.030;5.350;2023-04-25T08:10:05;7.15;;;1.35;;
63965;SDS011;50151;52.030;5.350;2023-04-25T08:12:32;2.55;;;0.52;;
63965;SDS011;50151;52.030;5.350;2023-04-25T08:14:59;13.85;;;1.50;;
63965;SDS011;50151;52.030;5.350;2023-04-25T08:17:26;9.13;;;1.30;;
63965;SDS011;50151;52.030;5.350;2023-04-25T08:19:53;8.90;;;1.20;;
63965;SDS011;50151;52.030;5.350;2023-04-25T08:22:20;6.90;;;1.20;;
63965;SDS011;50151;52.030;5.350;2023-04-25T08:24:46;3.65;;;0.82;;
63965;SDS011;50151;52.030;5.350;2023-04-25T08:27:13;9.35;;;1.45;;
63965;SDS011;50151;52.030;5.350;2023-04-25T08:29:41;9.63;;;1.30;;
63965;SDS011;50151;52.030;5.350;2023-04-25T08:32:08;7.70;;;1.10;;
63965;SDS011;50151;52.030;5.350;2023-04-25T08:34:34;5.13;;;1.13;;
63965;SDS011;50151;52.030;5.350;2023-04-25T08:37:02;8.55;;;1.40;;
63965;SDS011;50151;52.030;5.350;2023-04-25T08:39:30;5.75;;;1.00;;
63965;SDS011;50151;52.030;5.350;2023-04-25T08:41:57;5.88;;;0.77;;
63965;SDS011;50151;52.030;5.350;2023-04-25T08:44:23;4.90;;;0.85;;
63965;SDS011;50151;52.030;5.350;2023-04-25T08:46:51;5.50;;;1.20;;
63965;SDS011;50151;52.030;5.350;2023-04-25T08:49:19;6.75;;;1.05;;
63965;SDS011;50151;52.030;5.350;2023-04-25T08:51:46;9.48;;;1.25;;
63965;SDS011;50151;52.030;5.350;2023-04-25T08:54:14;9.60;;;1.42;;
63965;SDS011;50151;52.030;5.350;2023-04-25T08:57:00;3.33;;;0.80;;
63965;SDS011;50151;52.030;5.350;2023-04-25T08:59:28;3.28;;;0.55;;
63965;SDS011;50151;52.030;5.350;2023-04-25T09:01:55;6.50;;;1.02;;
63965;SDS011;50151;52.030;5.350;2023-04-25T09:04:22;2.42;;;0.70;;
63965;SDS011;50151;52.030;5.350;2023-04-25T09:06:52;9.38;;;0.93;;
63965;SDS011;50151;52.030;5.350;2023-04-25T09:09:19;1.00;;;0.43;;
63965;SDS011;50151;52.030;5.350;2023-04-25T09:11:46;4.45;;;0.82;;
63965;SDS011;50151;52.030;5.350;2023-04-25T09:14:20;4.68;;;1.00;;
63965;SDS011;50151;52.030;5.350;2023-04-25T09:19:31;3.55;;;0.85;;
63965;SDS011;50151;52.030;5.350;2023-04-25T09:22:06;6.60;;;1.23;;
63965;SDS011;50151;52.030;5.350;2023-04-25T09:27:10;4.25;;;1.05;;
63965;SDS011;50151;52.030;5.350;2023-04-25T09:29:39;7.90;;;1.17;;
63965;SDS011;50151;52.030;5.350;2023-04-25T09:32:17;3.50;;;1.00;;
63965;SDS011;50151;52.030;5.350;2023-04-25T09:34:47;3.15;;;0.90;;
63965;SDS011;50151;52.030;5.350;2023-04-25T09:37:19;5.28;;;1.00;;
63965;SDS011;50151;52.030;5.350;2023-04-25T09:39:48;1.95;;;0.57;;
63965;SDS011;50151;52.030;5.350;2023-04-25T09:42:16;5.68;;;0.60;;
63965;SDS011;50151;52.030;5.350;2023-04-25T09:44:44;7.43;;;0.85;;
63965;SDS011;50151;52.030;5.350;2023-04-25T09:47:12;2.88;;;0.60;;
63965;SDS011;50151;52.030;5.350;2023-04-25T09:49:42;5.03;;;0.80;;
63965;SDS011;50151;52.030;5.350;2023-04-25T09:52:11;3.55;;;0.95;;
63965;SDS011;50151;52.030;5.350;2023-04-25T09:54:41;6.07;;;0.90;;
63965;SDS011;50151;52.030;5.350;2023-04-25T09:57:12;7.43;;;0.75;;
63965;SDS011;50151;52.030;5.350;2023-04-25T09:59:44;6.65;;;1.17;;
63965;SDS011;50151;52.030;5.350;2023-04-25T10:02:13;5.22;;;0.88;;
63965;SDS011;50151;52.030;5.350;2023-04-25T10:04:41;6.05;;;1.05;;
63965;SDS011;50151;52.030;5.350;2023-04-25T10:07:10;2.55;;;0.85;;
63965;SDS011;50151;52.030;5.350;2023-04-25T10:09:38;8.48;;;0.98;;
63965;SDS011;50151;52.030;5.350;2023-04-25T10:12:06;2.33;;;0.70;;
63965;SDS011;50151;52.030;5.350;2023-04-25T10:14:34;7.97;;;1.00;;
63965;SDS011;50151;52.030;5.350;2023-04-25T10:17:01;7.93;;;0.90;;
63965;SDS011;50151;52.030;5.350;2023-04-25T10:19:28;5.72;;;1.00;;
63965;SDS011;50151;52.030;5.350;2023-04-25T10:21:58;4.80;;;0.98;;
63965;SDS011;50151;52.030;5.350;2023-04-25T10:24:44;5.07;;;1.02;;
63965;SDS011;50151;52.030;5.350;2023-04-25T10:27:12;10.05;;;1.90;;
63965;SDS011;50151;52.030;5.350;2023-04-25T10:29:39;9.45;;;0.90;;
63965;SDS011;50151;52.030;5.350;2023-04-25T10:32:09;7.18;;;1.40;;
63965;SDS011;50151;52.030;5.350;2023-04-25T10:34:40;4.78;;;0.70;;
63965;SDS011;50151;52.030;5.350;2023-04-25T10:37:09;5.35;;;0.93;;
63965;SDS011;50151;52.030;5.350;2023-04-25T10:39:38;8.43;;;1.08;;
63965;SDS011;50151;52.030;5.350;2023-04-25T10:42:06;2.67;;;0.75;;
63965;SDS011;50151;52.030;5.350;2023-04-25T10:44:37;7.53;;;1.42;;
63965;SDS011;50151;52.030;5.350;2023-04-25T10:47:06;7.55;;;1.25;;
63965;SDS011;50151;52.030;5.350;2023-04-25T10:49:35;5.97;;;1.00;;
63965;SDS011;50151;52.030;5.350;2023-04-25T10:54:58;5.45;;;1.23;;
63965;SDS011;50151;52.030;5.350;2023-04-25T10:57:40;3.15;;;0.70;;
63965;SDS011;50151;52.030;5.350;2023-04-25T11:02:58;8.52;;;0.93;;
63965;SDS011;50151;52.030;5.350;2023-04-25T11:05:29;7.75;;;1.23;;
63965;SDS011;50151;52.030;5.350;2023-04-25T11:08:03;8.05;;;1.10;;
63965;SDS011;50151;52.030;5.350;2023-04-25T11:10:40;7.30;;;0.80;;
63965;SDS011;50151;52.030;5.350;2023-04-25T11:13:07;4.72;;;1.00;;
63965;SDS011;50151;52.030;5.350;2023-04-25T11:15:33;5.85;;;0.80;;
63965;SDS011;50151;52.030;5.350;2023-04-25T11:18:00;4.53;;;0.70;;
63965;SDS011;50151;52.030;5.350;2023-04-25T11:20:27;7.80;;;1.17;;
63965;SDS011;50151;52.030;5.350;2023-04-25T11:22:57;3.90;;;0.80;;
63965;SDS011;50151;52.030;5.350;2023-04-25T11:25:26;4.35;;;0.88;;
63965;SDS011;50151;52.030;5.350;2023-04-25T11:27:53;4.88;;;0.90;;
63965;SDS011;50151;52.030;5.350;2023-04-25T11:30:23;5.80;;;1.08;;
63965;SDS011;50151;52.030;5.350;2023-04-25T11:32:51;5.43;;;0.70;;
63965;SDS011;50151;52.030;5.350;2023-04-25T11:35:19;4.80;;;0.90;;
63965;SDS011;50151;52.030;5.350;2023-04-25T11:37:49;6.18;;;1.02;;
63965;SDS011;50151;52.030;5.350;2023-04-25T11:40:16;5.15;;;1.17;;
63965;SDS011;50151;52.030;5.350;2023-04-25T11:42:44;5.50;;;1.00;;
63965;SDS011;50151;52.030;5.350;2023-04-25T11:45:13;6.93;;;0.95;;
63965;SDS011;50151;52.030;5.350;2023-04-25T11:47:40;3.38;;;0.80;;
63965;SDS011;50151;52.030;5.350;2023-04-25T11:50:07;2.15;;;0.80;;
63965;SDS011;50151;52.030;5.350;2023-04-25T11:52:41;5.28;;;0.90;;
63965;SDS011;50151;52.030;5.350;2023-04-25T11:55:13;3.53;;;0.40;;
63965;SDS011;50151;52.030;5.350;2023-04-25T11:57:41;5.30;;;1.00;;
63965;SDS011;50151;52.030;5.350;2023-04-25T12:02:45;3.38;;;0.77;;
63965;SDS011;50151;52.030;5.350;2023-04-25T12:05:14;3.53;;;0.63;;
63965;SDS011;50151;52.030;5.350;2023-04-25T12:07:57;2.72;;;0.93;;
63965;SDS011;50151;52.030;5.350;2023-04-25T12:10:24;1.75;;;0.70;;
63965;SDS011;50151;52.030;5.350;2023-04-25T12:12:51;2.10;;;0.98;;
63965;SDS011;50151;52.030;5.350;2023-04-25T12:15:22;3.90;;;0.90;;
63965;SDS011;50151;52.030;5.350;2023-04-25T12:17:51;4.47;;;0.98;;
63965;SDS011;50151;52.030;5.350;2023-04-25T12:20:21;3.80;;;1.00;;
63965;SDS011;50151;52.030;5.350;2023-04-25T12:22:51;5.25;;;1.23;;
63965;SDS011;50151;52.030;5.350;2023-04-25T12:25:37;5.95;;;0.90;;
63965;SDS011;50151;52.030;5.350;2023-04-25T12:30:52;15.05;;;1.08;;
63965;SDS011;50151;52.030;5.350;2023-04-25T12:33:22;2.97;;;1.02;;
63965;SDS011;50151;52.030;5.350;2023-04-25T12:35:49;4.70;;;1.00;;
63965;SDS011;50151;52.030;5.350;2023-04-25T12:38:23;5.57;;;0.80;;
63965;SDS011;50151;52.030;5.350;2023-04-25T12:40:56;4.68;;;0.68;;
63965;SDS011;50151;52.030;5.350;2023-04-25T12:43:24;1.30;;;0.40;;
63965;SDS011;50151;52.030;5.350;2023-04-25T12:45:54;1.50;;;0.28;;
63965;SDS011;50151;52.030;5.350;2023-04-25T12:48:22;2.63;;;0.68;;
63965;SDS011;50151;52.030;5.350;2023-04-25T12:50:50;4.95;;;1.27;;
63965;SDS011;50151;52.030;5.350;2023-04-25T12:53:21;3.67;;;0.80;;
63965;SDS011;50151;52.030;5.350;2023-04-25T12:55:50;5.68;;;0.82;;
63965;SDS011;50151;52.030;5.350;2023-04-25T12:58:18;5.45;;;1.10;;
63965;SDS011;50151;52.030;5.350;2023-04-25T13:00:46;4.30;;;0.70;;
63965;SDS011;50151;52.030;5.350;2023-04-25T13:03:12;3.63;;;0.60;;
63965;SDS011;50151;52.030;5.350;2023-04-25T13:05:39;6.18;;;0.90;;
63965;SDS011;50151;52.030;5.350;2023-04-25T13:08:07;5.30;;;0.75;;
63965;SDS011;50151;52.030;5.350;2023-04-25T13:10:34;4.75;;;1.00;;
63965;SDS011;50151;52.030;5.350;2023-04-25T13:13:02;3.15;;;0.90;;
63965;SDS011;50151;52.030;5.350;2023-04-25T13:15:28;4.88;;;0.63;;
63965;SDS011;50151;52.030;5.350;2023-04-25T13:17:56;4.63;;;1.20;;
63965;SDS011;50151;52.030;5.350;2023-04-25T13:20:23;6.20;;;1.55;;
63965;SDS011;50151;52.030;5.350;2023-04-25T13:22:49;3.95;;;0.85;;
63965;SDS011;50151;52.030;5.350;2023-04-25T13:25:16;3.03;;;0.52;;
63965;SDS011;50151;52.030;5.350;2023-04-25T13:27:43;5.50;;;0.85;;
63965;SDS011;50151;52.030;5.350;2023-04-25T13:30:11;3.17;;;0.80;;
63965;SDS011;50151;52.030;5.350;2023-04-25T13:32:38;4.85;;;1.05;;
63965;SDS011;50151;52.030;5.350;2023-04-25T13:35:09;6.88;;;1.23;;
63965;SDS011;50151;52.030;5.350;2023-04-25T13:37:38;4.93;;;1.10;;
63965;SDS011;50151;52.030;5.350;2023-04-25T13:40:06;7.40;;;1.27;;
63965;SDS011;50151;52.030;5.350;2023-04-25T13:42:35;5.00;;;0.98;;
63965;SDS011;50151;52.030;5.350;2023-04-25T13:45:03;4.43;;;0.93;;
63965;SDS011;50151;52.030;5.350;2023-04-25T13:47:30;4.57;;;1.10;;
63965;SDS011;50151;52.030;5.350;2023-04-25T13:49:57;3.75;;;1.00;;
63965;SDS011;50151;52.030;5.350;2023-04-25T13:52:23;3.22;;;0.75;;
63965;SDS011;50151;52.030;5.350;2023-04-25T13:54:50;3.00;;;0.68;;
63965;SDS011;50151;52.030;5.350;2023-04-25T13:57:17;3.00;;;0.73;;
63965;SDS011;50151;52.030;5.350;2023-04-25T13:59:44;2.67;;;0.50;;
63965;SDS011;50151;52.030;5.350;2023-04-25T14:02:12;3.67;;;0.70;;
63965;SDS011;50151;52.030;5.350;2023-04-25T14:04:38;3.42;;;0.95;;
63965;SDS011;50151;52.030;5.350;2023-04-25T14:07:05;3.50;;;1.08;;
63965;SDS011;50151;52.030;5.350;2023-04-25T14:09:32;5.43;;;1.20;;
63965;SDS011;50151;52.030;5.350;2023-04-25T14:11:59;4.95;;;1.10;;
63965;SDS011;50151;52.030;5.350;2023-04-25T14:14:26;5.85;;;1.20;;
63965;SDS011;50151;52.030;5.350;2023-04-25T14:16:53;6.63;;;1.02;;
63965;SDS011;50151;52.030;5.350;2023-04-25T14:19:20;4.78;;;0.90;;
63965;SDS011;50151;52.030;5.350;2023-04-25T14:21:47;6.60;;;1.20;;
63965;SDS011;50151;52.030;5.350;2023-04-25T14:24:14;7.60;;;0.85;;
63965;SDS011;50151;52.030;5.350;2023-04-25T14:26:41;7.85;;;1.33;;
63965;SDS011;50151;52.030;5.350;2023-04-25T14:29:09;7.03;;;1.20;;
63965;SDS011;50151;52.030;5.350;2023-04-25T14:31:38;5.75;;;1.10;;
63965;SDS011;50151;52.030;5.350;2023-04-25T14:34:06;2.75;;;0.80;;
63965;SDS011;50151;52.030;5.350;2023-04-25T14:36:33;5.18;;;1.00;;
63965;SDS011;50151;52.030;5.350;2023-04-25T14:39:01;4.10;;;0.80;;
63965;SDS011;50151;52.030;5.350;2023-04-25T14:41:28;4.07;;;1.08;;
63965;SDS011;50151;52.030;5.350;2023-04-25T14:43:55;7.20;;;1.20;;
63965;SDS011;50151;52.030;5.350;2023-04-25T14:46:23;5.53;;;1.23;;
63965;SDS011;50151;52.030;5.350;2023-04-25T14:48:49;6.47;;;1.38;;
63965;SDS011;50151;52.030;5.350;2023-04-25T14:51:16;7.70;;;1.20;;
63965;SDS011;50151;52.030;5.350;2023-04-25T14:53:43;5.25;;;1.40;;
63965;SDS011;50151;52.030;5.350;2023-04-25T14:56:10;5.10;;;0.82;;
63965;SDS011;50151;52.030;5.350;2023-04-25T14:58:37;5.40;;;1.10;;
63965;SDS011;50151;52.030;5.350;2023-04-25T15:01:05;3.97;;;1.10;;
63965;SDS011;50151;52.030;5.350;2023-04-25T15:03:32;4.60;;;1.08;;
63965;SDS011;50151;52.030;5.350;2023-04-25T15:05:59;6.63;;;1.20;;